Search for airport 
image banner adimage banner adimage banner ad
image banner ad

CA25 - Mark Twain Medical Center

Located in San Andreas, United States

ICAO - CA25, IATA -

Data provided by Airmate  

General information

Coordinates: N38°11'27" W120°40'9"
Elevation is 1033 feet MSL.
Magnetic variation is 16° East
View others Airports in California

Operational data

Special qualification required
Current time UTC:
Current local time:
METAR: KCPU 141115Z AUTO 36003KT 10SM CLR 14/13 A3000 RMK AO2 T01410129
View NOTAMs / SUP AIP / TFR affecting this airport [VIEW]
Communications frequencies: [VIEW]

Runways:

Airport contact information

Address: San Andreas United States

Satellite view of CA25